Raymond, Washington
Current Conditions -  °F | °C
As of 7:53 PM on Saturday 22 Nov 2014 (Local Time) from KHQM Reporting Station
Broken Clouds Broken Clouds  
Wind Chill: 43°   Ceiling: 6000
Heat Index: 46°   Visibility: 9mi
Dew Point: 43°   Wind: 6mph
Humidity: 89%   Direction: 330°NNW
Pressure: 30.09"   Gusts: NA
Location:  46.69°N, 123.73°W
Report Text: KHQM 230353Z AUTO 33005KT 9SM FEW035 SCT046 BKN060 08/06 A3009 RMK AO2 SLP191 T00780061
Loading
Personal Weather Stations






























Interactive Weather Map New forecast layout! Learn more

10-Day Weather Forecast

Advertisements
Track Severe Weather on mobile